createdAt,value
2023-03-28T00:01:03.516Z,2.63
2023-03-28T00:03:35.923Z,2.67
2023-03-28T00:06:05.600Z,2.50
2023-03-28T00:08:33.163Z,2.70
2023-03-28T00:11:05.839Z,3.00
2023-03-28T00:13:33.662Z,2.65
2023-03-28T00:16:07.060Z,2.53
2023-03-28T00:18:37.631Z,2.90
2023-03-28T00:21:07.945Z,3.10
2023-03-28T00:23:35.871Z,3.22
2023-03-28T00:26:07.952Z,2.92
2023-03-28T00:28:35.524Z,3.13
2023-03-28T00:31:05.064Z,3.15
2023-03-28T00:33:32.760Z,2.80
2023-03-28T00:36:00.580Z,3.33
2023-03-28T00:38:28.204Z,2.92
2023-03-28T00:40:58.802Z,3.47
2023-03-28T00:43:46.636Z,3.30
2023-03-28T00:46:21.112Z,3.08
2023-03-28T00:48:51.631Z,2.90
2023-03-28T00:51:21.689Z,3.15
2023-03-28T00:56:19.700Z,3.33
2023-03-28T00:58:47.970Z,2.70
2023-03-28T01:01:20.936Z,3.08
2023-03-28T01:04:20.598Z,3.40
2023-03-28T01:06:57.192Z,3.05
2023-03-28T01:09:25.521Z,3.35
2023-03-28T01:11:58.857Z,3.45
2023-03-28T01:14:31.695Z,2.90
2023-03-28T01:17:08.202Z,2.90
2023-03-28T01:19:46.474Z,2.95
2023-03-28T01:22:43.948Z,2.97
2023-03-28T01:25:56.642Z,3.00
2023-03-28T01:28:56.991Z,2.78
2023-03-28T01:31:47.486Z,2.85
2023-03-28T01:35:19.294Z,2.65
2023-03-28T01:38:09.405Z,3.08
2023-03-28T01:41:07.439Z,2.75
2023-03-28T01:43:52.913Z,3.33
2023-03-28T01:49:40.064Z,2.70
2023-03-28T01:52:33.164Z,2.75
2023-03-28T01:55:10.729Z,2.67
2023-03-28T01:58:25.220Z,2.85
2023-03-28T02:01:09.305Z,2.63
2023-03-28T02:03:42.317Z,3.45
2023-03-28T02:06:17.399Z,2.70
2023-03-28T02:08:45.068Z,2.95
2023-03-28T02:11:19.292Z,2.75
2023-03-28T02:14:12.360Z,3.33
2023-03-28T02:17:04.817Z,3.20
2023-03-28T02:20:08.963Z,2.97
2023-03-28T02:23:15.828Z,2.90
2023-03-28T02:26:01.352Z,2.80
2023-03-28T02:28:48.859Z,2.90
2023-03-28T02:31:29.841Z,3.40
2023-03-28T02:33:58.825Z,3.10
2023-03-28T02:36:32.209Z,2.97
2023-03-28T02:39:14.742Z,2.70
2023-03-28T02:41:56.916Z,2.95
2023-03-28T02:44:50.110Z,3.17
2023-03-28T02:47:39.341Z,2.90
2023-03-28T02:50:18.770Z,2.92
2023-03-28T02:52:58.584Z,2.97
2023-03-28T02:55:47.761Z,2.55
2023-03-28T02:58:46.353Z,2.72
2023-03-28T03:01:14.621Z,2.67
2023-03-28T03:03:44.609Z,2.25
2023-03-28T03:06:12.664Z,2.53
2023-03-28T03:08:40.030Z,2.88
2023-03-28T03:11:07.358Z,2.90
2023-03-28T03:13:34.641Z,2.83
2023-03-28T03:16:04.136Z,2.70
2023-03-28T03:18:32.703Z,2.75
2023-03-28T03:21:02.698Z,2.67
2023-03-28T03:23:31.008Z,2.78
2023-03-28T03:26:00.039Z,2.95
2023-03-28T03:28:39.674Z,2.75
2023-03-28T03:31:08.172Z,2.80
2023-03-28T03:33:53.830Z,2.70
2023-03-28T03:36:27.196Z,2.45
2023-03-28T03:38:54.670Z,2.85
2023-03-28T03:41:24.824Z,2.67
2023-03-28T03:43:52.350Z,2.80
2023-03-28T03:46:19.656Z,2.85
2023-03-28T03:48:49.912Z,2.60
2023-03-28T03:51:18.167Z,3.05
2023-03-28T03:53:46.761Z,3.60
2023-03-28T03:56:16.923Z,3.10
2023-03-28T03:58:56.540Z,2.78
2023-03-28T04:01:30.155Z,2.90
2023-03-28T04:04:07.292Z,3.15
2023-03-28T04:06:51.571Z,2.95
2023-03-28T04:09:20.638Z,3.15
2023-03-28T04:11:57.391Z,3.15
2023-03-28T04:14:24.951Z,2.95
2023-03-28T04:17:04.938Z,3.55
2023-03-28T04:19:32.822Z,3.03
2023-03-28T04:22:00.127Z,3.45
2023-03-28T04:24:27.551Z,3.65
2023-03-28T04:27:18.619Z,2.88
2023-03-28T04:29:47.934Z,3.50
2023-03-28T04:32:35.933Z,3.22
2023-03-28T04:35:08.467Z,3.67
2023-03-28T04:37:37.789Z,3.38
2023-03-28T04:40:16.312Z,3.35
2023-03-28T04:43:15.383Z,3.08
2023-03-28T04:45:49.074Z,3.35
2023-03-28T04:48:18.283Z,3.03
2023-03-28T04:50:46.295Z,3.47
2023-03-28T04:53:14.905Z,2.90
2023-03-28T04:56:02.748Z,3.20
2023-03-28T04:58:31.022Z,3.90
2023-03-28T05:01:03.040Z,3.63
2023-03-28T05:03:56.655Z,3.88
2023-03-28T05:06:25.991Z,3.38
2023-03-28T05:08:53.530Z,3.85
2023-03-28T05:11:25.647Z,3.58
2023-03-28T05:13:52.914Z,4.40
2023-03-28T05:16:28.936Z,3.90
2023-03-28T05:19:05.255Z,4.20
2023-03-28T05:22:07.929Z,3.53
2023-03-28T05:24:38.202Z,3.78
2023-03-28T05:27:12.674Z,3.72
2023-03-28T05:29:40.084Z,3.40
2023-03-28T05:32:08.060Z,3.63
2023-03-28T05:34:36.163Z,3.47
2023-03-28T05:37:04.521Z,3.83
2023-03-28T05:39:43.266Z,3.53
2023-03-28T05:42:11.051Z,3.83
2023-03-28T05:44:40.590Z,4.10
2023-03-28T05:47:28.272Z,3.38
2023-03-28T05:49:58.285Z,4.28
2023-03-28T05:52:26.185Z,3.95
2023-03-28T05:54:56.112Z,4.18
2023-03-28T05:57:23.523Z,4.03
2023-03-28T05:59:51.599Z,4.13
2023-03-28T06:02:23.018Z,7.72
2023-03-28T06:04:53.651Z,4.32
2023-03-28T06:07:31.487Z,4.20
2023-03-28T06:10:09.563Z,4.50
2023-03-28T06:12:37.906Z,4.40
2023-03-28T06:15:06.107Z,4.35
2023-03-28T06:17:37.413Z,4.75
2023-03-28T06:20:07.788Z,4.07
2023-03-28T06:22:39.660Z,4.78
2023-03-28T06:25:11.691Z,4.00
2023-03-28T06:27:39.260Z,4.20
2023-03-28T06:30:10.409Z,4.07
2023-03-28T06:32:46.022Z,5.00
2023-03-28T06:35:15.757Z,4.47
2023-03-28T06:37:43.202Z,5.07
2023-03-28T06:40:11.703Z,5.18
2023-03-28T06:42:39.379Z,4.85
2023-03-28T06:45:29.633Z,4.95
2023-03-28T06:48:02.200Z,4.68
2023-03-28T06:50:52.609Z,4.80
2023-03-28T06:53:22.561Z,4.45
2023-03-28T06:55:51.170Z,4.53
2023-03-28T06:58:20.175Z,5.03
2023-03-28T07:00:53.781Z,4.80
2023-03-28T07:03:45.417Z,5.07
2023-03-28T07:06:18.267Z,4.53
2023-03-28T07:08:46.211Z,4.60
2023-03-28T07:11:18.616Z,5.05
2023-03-28T07:13:49.429Z,4.80
2023-03-28T07:16:17.188Z,5.40
2023-03-28T07:18:44.589Z,4.75
2023-03-28T07:21:17.442Z,5.32
2023-03-28T07:23:45.305Z,5.03
2023-03-28T07:26:15.476Z,5.43
2023-03-28T07:28:42.809Z,4.93
2023-03-28T07:31:11.355Z,4.80
2023-03-28T07:33:38.911Z,4.78
2023-03-28T07:36:13.820Z,4.95
2023-03-28T07:38:43.142Z,5.20
2023-03-28T07:41:10.897Z,5.80
2023-03-28T07:43:40.144Z,5.57
2023-03-28T07:46:09.839Z,6.20
2023-03-28T07:48:38.033Z,6.10
2023-03-28T07:51:06.529Z,6.53
2023-03-28T07:53:35.660Z,5.55
2023-03-28T07:56:03.621Z,5.97
2023-03-28T07:58:51.230Z,5.75
2023-03-28T08:01:19.680Z,5.25
2023-03-28T08:03:50.048Z,5.65
2023-03-28T08:06:30.932Z,5.50
2023-03-28T08:09:03.156Z,6.15
2023-03-28T08:11:39.543Z,5.75
2023-03-28T08:14:11.303Z,5.63
2023-03-28T08:16:39.013Z,6.10
2023-03-28T08:19:11.311Z,6.20
2023-03-28T08:22:02.481Z,6.28
2023-03-28T08:24:36.076Z,5.82
2023-03-28T08:27:13.118Z,5.38
2023-03-28T08:29:42.378Z,5.78
2023-03-28T08:32:10.313Z,4.93
2023-03-28T08:34:38.760Z,5.13
2023-03-28T08:37:13.774Z,4.03
2023-03-28T08:39:43.341Z,4.47
2023-03-28T08:42:28.104Z,5.10
2023-03-28T08:45:32.181Z,4.38
2023-03-28T08:48:20.558Z,4.15
2023-03-28T08:50:51.520Z,4.35
2023-03-28T08:53:49.993Z,4.00
2023-03-28T08:56:17.881Z,4.00
2023-03-28T08:59:27.152Z,4.45
2023-03-28T09:01:54.689Z,4.07
2023-03-28T09:04:39.357Z,3.83
2023-03-28T09:07:17.239Z,4.50
2023-03-28T09:09:56.822Z,4.53
2023-03-28T09:12:47.083Z,4.00
2023-03-28T09:15:20.749Z,3.85
2023-03-28T09:18:10.410Z,4.00
2023-03-28T09:21:37.415Z,4.13
2023-03-28T09:24:17.530Z,3.75
2023-03-28T09:27:02.576Z,3.10
2023-03-28T09:29:34.529Z,2.95
2023-03-28T09:32:13.285Z,3.35
2023-03-28T09:34:49.309Z,3.55
2023-03-28T09:37:31.824Z,3.35
2023-03-28T09:40:22.946Z,2.92
2023-03-28T09:43:35.463Z,2.88
2023-03-28T09:46:18.840Z,2.95
2023-03-28T09:48:59.987Z,2.53
2023-03-28T09:51:31.874Z,2.40
2023-03-28T09:53:59.469Z,2.53
2023-03-28T09:56:37.270Z,2.55
2023-03-28T09:59:40.662Z,2.53
2023-03-28T10:02:30.907Z,2.58
2023-03-28T10:05:02.855Z,2.72
2023-03-28T10:07:44.704Z,2.30
2023-03-28T10:10:22.421Z,2.47
2023-03-28T10:13:04.826Z,2.47
2023-03-28T10:15:50.124Z,2.58
2023-03-28T10:18:35.813Z,2.67
2023-03-28T10:21:20.995Z,3.20
2023-03-28T10:24:04.060Z,3.00
2023-03-28T10:26:31.654Z,3.95
2023-03-28T10:29:04.738Z,2.45
2023-03-28T10:31:33.269Z,2.67
2023-03-28T10:34:29.766Z,2.58
2023-03-28T10:37:30.041Z,2.83
2023-03-28T10:40:19.172Z,2.33
2023-03-28T10:43:14.655Z,2.75
2023-03-28T10:45:47.205Z,3.03
2023-03-28T10:48:22.636Z,2.67
2023-03-28T10:50:53.650Z,2.35
2023-03-28T10:53:37.169Z,2.10
2023-03-28T10:56:24.677Z,2.80
2023-03-28T10:59:31.125Z,2.60
2023-03-28T11:02:24.271Z,3.05
2023-03-28T11:05:01.904Z,4.28
2023-03-28T11:07:45.448Z,4.00
2023-03-28T11:10:32.646Z,5.90
2023-03-28T11:13:22.330Z,5.50
2023-03-28T11:15:50.030Z,3.60
2023-03-28T11:18:56.459Z,3.17
2023-03-28T11:21:52.340Z,3.15
2023-03-28T11:24:20.174Z,2.92
2023-03-28T11:27:27.529Z,2.88
2023-03-28T11:30:17.791Z,3.50
2023-03-28T11:32:59.700Z,2.70
2023-03-28T11:36:09.848Z,2.92
2023-03-28T11:38:41.190Z,2.97
2023-03-28T11:41:22.962Z,2.97
2023-03-28T11:44:21.393Z,2.90
2023-03-28T11:46:59.576Z,3.20
2023-03-28T11:49:38.240Z,2.78
2023-03-28T11:52:44.994Z,3.40
2023-03-28T11:57:58.006Z,2.70
2023-03-28T12:00:34.521Z,2.88
2023-03-28T12:03:34.337Z,3.20
2023-03-28T12:06:05.803Z,2.60
2023-03-28T12:08:49.678Z,3.00
2023-03-28T12:11:52.641Z,2.97
2023-03-28T12:14:36.379Z,2.65
2023-03-28T12:17:21.147Z,2.60
2023-03-28T12:19:49.182Z,2.70
2023-03-28T12:22:26.616Z,3.22
2023-03-28T12:25:00.357Z,3.05
2023-03-28T12:27:57.224Z,2.63
2023-03-28T12:30:35.712Z,5.32
2023-03-28T12:33:37.843Z,2.80
2023-03-28T12:36:18.609Z,3.10
2023-03-28T12:39:03.421Z,2.95
2023-03-28T12:41:38.163Z,3.28
2023-03-28T12:44:15.514Z,2.85
2023-03-28T12:46:55.864Z,4.45
2023-03-28T12:49:42.199Z,2.50
2023-03-28T12:52:16.515Z,2.50
2023-03-28T12:55:01.085Z,2.60
2023-03-28T12:57:40.507Z,2.30
2023-03-28T13:00:24.336Z,2.08
2023-03-28T13:03:57.392Z,2.40
2023-03-28T13:06:48.162Z,2.38
2023-03-28T13:09:40.262Z,2.40
2023-03-28T13:12:22.640Z,2.05
2023-03-28T13:15:23.437Z,1.77
2023-03-28T13:18:21.784Z,2.28
2023-03-28T13:20:51.669Z,2.33
2023-03-28T13:23:25.266Z,3.30
2023-03-28T13:25:57.694Z,2.50
2023-03-28T13:28:54.548Z,2.63
2023-03-28T13:31:24.588Z,2.40
2023-03-28T13:36:22.440Z,4.55
2023-03-28T13:38:59.956Z,2.45
2023-03-28T13:41:42.690Z,2.63
2023-03-28T13:44:20.804Z,2.58
2023-03-28T13:46:49.445Z,2.22
2023-03-28T13:49:24.388Z,2.35
2023-03-28T13:51:52.207Z,2.10
2023-03-28T13:54:19.878Z,1.88
2023-03-28T13:56:48.861Z,2.05
2023-03-28T13:59:25.136Z,1.95
2023-03-28T14:02:00.642Z,1.50
2023-03-28T14:04:32.747Z,1.70
2023-03-28T14:07:01.598Z,1.77
2023-03-28T14:09:28.797Z,1.55
2023-03-28T14:12:12.083Z,1.60
2023-03-28T14:14:51.117Z,2.25
2023-03-28T14:17:22.069Z,1.80
2023-03-28T14:19:57.092Z,1.95
2023-03-28T14:22:27.090Z,1.77
2023-03-28T14:24:58.486Z,1.50
2023-03-28T14:27:39.165Z,1.60
2023-03-28T14:30:17.374Z,1.67
2023-03-28T14:32:57.356Z,1.38
2023-03-28T14:35:29.107Z,1.30
2023-03-28T14:37:58.915Z,1.45
2023-03-28T14:40:33.396Z,1.50
2023-03-28T14:43:04.689Z,1.75
2023-03-28T14:45:37.906Z,1.45
2023-03-28T14:48:08.852Z,1.23
2023-03-28T14:50:39.260Z,1.73
2023-03-28T14:53:11.505Z,1.25
2023-03-28T14:55:39.354Z,1.40
2023-03-28T14:58:06.722Z,1.38
2023-03-28T15:00:39.116Z,1.33
2023-03-28T15:03:12.217Z,1.52
2023-03-28T15:05:39.579Z,1.30
2023-03-28T15:08:37.850Z,1.33
2023-03-28T15:11:09.274Z,1.60
2023-03-28T15:13:40.734Z,1.20
2023-03-28T15:16:09.152Z,1.33
2023-03-28T15:18:44.277Z,1.40
2023-03-28T15:21:12.217Z,2.28
2023-03-28T15:23:49.190Z,2.08
2023-03-28T15:26:26.524Z,1.65
2023-03-28T15:28:55.394Z,1.40
2023-03-28T15:31:23.253Z,1.73
2023-03-28T15:33:52.497Z,1.45
2023-03-28T15:36:24.066Z,1.63
2023-03-28T15:39:02.455Z,1.52
2023-03-28T15:41:48.144Z,2.17
2023-03-28T15:44:33.147Z,1.50
2023-03-28T15:47:22.066Z,1.70
2023-03-28T15:49:50.718Z,1.38
2023-03-28T15:52:20.774Z,1.60
2023-03-28T15:57:24.965Z,1.60
2023-03-28T15:59:52.269Z,1.48
2023-03-28T16:02:22.948Z,1.75
2023-03-28T16:05:13.217Z,1.40
2023-03-28T16:10:17.300Z,1.55
2023-03-28T16:13:14.955Z,1.50
2023-03-28T16:16:05.216Z,1.67
2023-03-28T16:21:29.600Z,1.77
2023-03-28T16:23:56.886Z,1.83
2023-03-28T16:26:25.765Z,1.65
2023-03-28T16:28:53.050Z,1.77
2023-03-28T16:31:20.912Z,1.88
2023-03-28T16:33:48.972Z,1.67
2023-03-28T16:36:17.463Z,1.63
2023-03-28T16:38:45.802Z,1.70
2023-03-28T16:41:17.097Z,1.80
2023-03-28T16:43:45.245Z,1.80
2023-03-28T16:46:13.345Z,2.00
2023-03-28T16:48:41.677Z,1.70
2023-03-28T16:51:13.161Z,1.85
2023-03-28T16:53:41.020Z,2.13
2023-03-28T16:56:11.857Z,2.00
2023-03-28T16:58:39.414Z,2.13
2023-03-28T17:01:19.225Z,2.33
2023-03-28T17:03:47.138Z,1.60
2023-03-28T17:06:16.718Z,2.20
2023-03-28T17:08:44.381Z,1.95
2023-03-28T17:11:13.702Z,2.22
2023-03-28T17:13:42.167Z,2.30
2023-03-28T17:16:10.767Z,2.80
2023-03-28T17:18:38.924Z,2.50
2023-03-28T17:21:11.777Z,2.15
2023-03-28T17:23:40.742Z,2.22
2023-03-28T17:26:09.573Z,2.28
2023-03-28T17:28:39.271Z,2.50
2023-03-28T17:31:08.935Z,1.92
2023-03-28T17:33:36.519Z,2.30
2023-03-28T17:36:36.423Z,2.75
2023-03-28T17:39:04.488Z,2.33
2023-03-28T17:41:32.237Z,2.38
2023-03-28T17:44:09.909Z,2.75
2023-03-28T17:46:39.309Z,2.95
2023-03-28T17:49:08.222Z,3.33
2023-03-28T17:51:35.545Z,4.25
2023-03-28T17:54:04.940Z,3.63
2023-03-28T17:56:32.392Z,3.60
2023-03-28T17:58:59.901Z,4.18
2023-03-28T18:01:27.392Z,3.58
2023-03-28T18:03:55.169Z,4.20
2023-03-28T18:06:42.628Z,5.68
2023-03-28T18:09:10.181Z,8.02
2023-03-28T18:11:39.230Z,6.07
2023-03-28T18:14:08.435Z,4.53
2023-03-28T18:16:36.396Z,4.65
2023-03-28T18:19:06.752Z,4.00
2023-03-28T18:21:34.232Z,4.40
2023-03-28T18:24:01.455Z,4.70
2023-03-28T18:26:28.993Z,5.80
2023-03-28T18:28:56.762Z,6.80
2023-03-28T18:31:28.139Z,4.93
2023-03-28T18:33:57.272Z,3.90
2023-03-28T18:36:25.286Z,3.40
2023-03-28T18:38:56.151Z,3.80
2023-03-28T18:41:24.227Z,3.58
2023-03-28T18:43:51.457Z,4.35
2023-03-28T18:46:18.855Z,4.22
2023-03-28T18:48:46.385Z,5.80
2023-03-28T18:51:14.002Z,6.95
2023-03-28T18:53:41.770Z,7.32
2023-03-28T18:56:10.462Z,10.07
2023-03-28T18:58:38.384Z,6.45
2023-03-28T19:01:08.856Z,6.68
2023-03-28T19:03:40.368Z,7.97
2023-03-28T19:06:10.076Z,8.88
2023-03-28T19:08:37.456Z,6.18
2023-03-28T19:11:13.396Z,5.40
2023-03-28T19:13:41.473Z,4.65
2023-03-28T19:16:11.755Z,4.35
2023-03-28T19:18:40.648Z,4.90
2023-03-28T19:21:09.150Z,5.50
2023-03-28T19:23:36.992Z,4.85
2023-03-28T19:26:05.815Z,5.00
2023-03-28T19:28:33.230Z,5.10
2023-03-28T19:31:11.677Z,5.30
2023-03-28T19:33:40.769Z,5.00
2023-03-28T19:36:08.781Z,5.07
2023-03-28T19:38:37.804Z,6.22
2023-03-28T19:41:10.458Z,7.32
2023-03-28T19:43:39.162Z,8.35
2023-03-28T19:46:08.674Z,10.57
2023-03-28T19:48:36.964Z,12.45
2023-03-28T19:51:04.311Z,12.25
2023-03-28T19:53:32.385Z,11.57
2023-03-28T19:56:00.840Z,9.70
2023-03-28T19:58:28.458Z,8.02
2023-03-28T20:00:56.853Z,10.32
2023-03-28T20:03:24.581Z,8.70
2023-03-28T20:05:52.074Z,8.55
2023-03-28T20:08:19.870Z,7.07
2023-03-28T20:10:49.618Z,7.07
2023-03-28T20:13:18.674Z,6.28
2023-03-28T20:15:46.611Z,5.82
2023-03-28T20:18:19.972Z,6.00
2023-03-28T20:20:58.390Z,5.80
2023-03-28T20:23:27.095Z,7.20
2023-03-28T20:25:55.325Z,15.63
2023-03-28T20:28:26.522Z,7.60
2023-03-28T20:30:54.314Z,5.82
2023-03-28T20:33:21.820Z,6.53
2023-03-28T20:35:59.214Z,6.03
2023-03-28T20:38:27.418Z,6.70
2023-03-28T20:40:54.794Z,5.80
2023-03-28T20:43:24.127Z,5.78
2023-03-28T20:45:56.148Z,5.60
2023-03-28T20:48:34.956Z,5.72
2023-03-28T20:51:04.016Z,6.70
2023-03-28T20:53:33.112Z,6.10
2023-03-28T20:56:02.323Z,6.37
2023-03-28T20:58:33.116Z,6.70
2023-03-28T21:01:01.927Z,6.03
2023-03-28T21:03:48.628Z,7.50
2023-03-28T21:06:39.716Z,7.72
2023-03-28T21:09:09.806Z,6.78
2023-03-28T21:14:06.647Z,6.63
2023-03-28T21:16:34.541Z,5.97
2023-03-28T21:19:02.705Z,6.20
2023-03-28T21:21:33.044Z,6.40
2023-03-28T21:24:00.951Z,7.05
2023-03-28T21:26:29.325Z,6.47
2023-03-28T21:28:56.868Z,6.78
2023-03-28T21:31:28.657Z,6.22
2023-03-28T21:33:57.340Z,6.05
2023-03-28T21:36:26.459Z,6.25
2023-03-28T21:38:54.629Z,6.57
2023-03-28T21:41:22.527Z,6.70
2023-03-28T21:43:50.548Z,6.68
2023-03-28T21:46:20.941Z,6.55
2023-03-28T21:48:48.615Z,6.57
2023-03-28T21:51:17.457Z,6.65
2023-03-28T21:53:45.861Z,6.20
2023-03-28T21:56:14.872Z,6.90
2023-03-28T21:58:42.361Z,6.78
2023-03-28T22:01:13.702Z,6.45
2023-03-28T22:03:41.368Z,6.63
2023-03-28T22:06:09.002Z,6.97
2023-03-28T22:08:36.729Z,6.88
2023-03-28T22:11:14.440Z,7.57
2023-03-28T22:13:42.696Z,6.63
2023-03-28T22:16:12.732Z,6.75
2023-03-28T22:18:41.699Z,6.45
2023-03-28T22:21:09.651Z,7.20
2023-03-28T22:23:37.300Z,6.80
2023-03-28T22:26:04.764Z,6.90
2023-03-28T22:28:32.007Z,7.03
2023-03-28T22:30:59.447Z,7.30
2023-03-28T22:33:31.093Z,6.75
2023-03-28T22:35:58.602Z,7.10
2023-03-28T22:38:25.959Z,6.75
2023-03-28T22:40:53.443Z,6.60
2023-03-28T22:43:20.724Z,6.97
2023-03-28T22:45:47.970Z,7.10
2023-03-28T22:48:15.273Z,6.85
2023-03-28T22:50:47.238Z,6.85
2023-03-28T22:53:15.038Z,7.30
2023-03-28T22:55:43.644Z,7.35
2023-03-28T22:58:11.874Z,7.32
2023-03-28T23:00:39.207Z,6.85
2023-03-28T23:03:08.005Z,7.25
2023-03-28T23:05:36.199Z,7.18
2023-03-28T23:08:04.715Z,7.40
2023-03-28T23:10:32.509Z,7.10
2023-03-28T23:13:00.312Z,7.10
2023-03-28T23:15:27.627Z,6.43
2023-03-28T23:17:54.914Z,6.78
2023-03-28T23:20:22.725Z,7.15
2023-03-28T23:22:50.199Z,6.70
2023-03-28T23:25:18.775Z,6.57
2023-03-28T23:27:46.600Z,6.70
2023-03-28T23:30:14.976Z,6.00
2023-03-28T23:32:42.330Z,6.20
2023-03-28T23:35:10.818Z,5.80
2023-03-28T23:37:38.516Z,6.40
2023-03-28T23:40:10.922Z,6.53
2023-03-28T23:42:38.297Z,6.80
2023-03-28T23:45:06.010Z,6.47
2023-03-28T23:47:33.288Z,7.10
2023-03-28T23:50:00.621Z,7.15
2023-03-28T23:52:27.943Z,7.22
2023-03-28T23:57:25.261Z,8.00
2023-03-28T23:59:52.674Z,7.82
